sensor_id;sensor_type;location;lat;lon;timestamp;pressure;altitude;pressure_sealevel;temperature;humidity
57801;BME280;43627;42.728;23.256;2022-11-15T00:00:56;95603.91;;;2.44;100.00
57801;BME280;43627;42.728;23.256;2022-11-15T00:03:24;95602.31;;;2.53;100.00
57801;BME280;43627;42.728;23.256;2022-11-15T00:05:51;95598.50;;;2.51;100.00
57801;BME280;43627;42.728;23.256;2022-11-15T00:08:18;95596.22;;;2.49;100.00
57801;BME280;43627;42.728;23.256;2022-11-15T00:10:55;95589.25;;;2.52;100.00
57801;BME280;43627;42.728;23.256;2022-11-15T00:13:23;95585.94;;;2.30;100.00
57801;BME280;43627;42.728;23.256;2022-11-15T00:15:49;95596.63;;;2.44;100.00
57801;BME280;43627;42.728;23.256;2022-11-15T00:18:17;95587.81;;;2.40;100.00
57801;BME280;43627;42.728;23.256;2022-11-15T00:20:44;95554.50;;;2.13;100.00
57801;BME280;43627;42.728;23.256;2022-11-15T00:23:11;95586.34;;;2.28;100.00
57801;BME280;43627;42.728;23.256;2022-11-15T00:25:38;95587.50;;;2.24;100.00
57801;BME280;43627;42.728;23.256;2022-11-15T00:28:05;95590.19;;;2.24;100.00
57801;BME280;43627;42.728;23.256;2022-11-15T00:30:32;95552.28;;;2.00;100.00
57801;BME280;43627;42.728;23.256;2022-11-15T00:33:05;95552.66;;;1.99;100.00
57801;BME280;43627;42.728;23.256;2022-11-15T00:35:33;95573.31;;;2.16;100.00
57801;BME280;43627;42.728;23.256;2022-11-15T00:38:01;95586.00;;;2.19;100.00
57801;BME280;43627;42.728;23.256;2022-11-15T00:40:29;95591.75;;;2.21;100.00
57801;BME280;43627;42.728;23.256;2022-11-15T00:42:56;95587.16;;;2.18;100.00
57801;BME280;43627;42.728;23.256;2022-11-15T00:45:24;95569.13;;;2.08;100.00
57801;BME280;43627;42.728;23.256;2022-11-15T00:47:51;95583.31;;;2.19;100.00
57801;BME280;43627;42.728;23.256;2022-11-15T00:50:18;95566.44;;;2.08;100.00
57801;BME280;43627;42.728;23.256;2022-11-15T00:52:45;95574.47;;;2.19;100.00
57801;BME280;43627;42.728;23.256;2022-11-15T00:55:16;95584.06;;;2.20;100.00
57801;BME280;43627;42.728;23.256;2022-11-15T00:57:43;95576.06;;;2.09;100.00
57801;BME280;43627;42.728;23.256;2022-11-15T01:00:11;95569.09;;;2.19;100.00
57801;BME280;43627;42.728;23.256;2022-11-15T01:02:38;95561.84;;;2.09;100.00
57801;BME280;43627;42.728;23.256;2022-11-15T01:05:05;95561.84;;;2.05;100.00
57801;BME280;43627;42.728;23.256;2022-11-15T01:07:32;95537.03;;;1.73;100.00
57801;BME280;43627;42.728;23.256;2022-11-15T01:09:59;95572.63;;;1.98;100.00
57801;BME280;43627;42.728;23.256;2022-11-15T01:12:26;95566.88;;;1.99;100.00
57801;BME280;43627;42.728;23.256;2022-11-15T01:14:53;95568.81;;;1.99;100.00
57801;BME280;43627;42.728;23.256;2022-11-15T01:17:20;95564.16;;;2.03;100.00
57801;BME280;43627;42.728;23.256;2022-11-15T01:19:46;95549.63;;;1.90;100.00
57801;BME280;43627;42.728;23.256;2022-11-15T01:22:13;95572.31;;;1.85;100.00
57801;BME280;43627;42.728;23.256;2022-11-15T01:24:40;95573.84;;;1.83;100.00
57801;BME280;43627;42.728;23.256;2022-11-15T01:27:07;95572.66;;;1.87;100.00
57801;BME280;43627;42.728;23.256;2022-11-15T01:29:34;95568.84;;;1.85;100.00
57801;BME280;43627;42.728;23.256;2022-11-15T01:32:01;95550.06;;;1.81;100.00
57801;BME280;43627;42.728;23.256;2022-11-15T01:34:28;95561.50;;;1.96;100.00
57801;BME280;43627;42.728;23.256;2022-11-15T01:36:55;95521.28;;;1.67;100.00
57801;BME280;43627;42.728;23.256;2022-11-15T01:39:22;95558.88;;;1.82;100.00
57801;BME280;43627;42.728;23.256;2022-11-15T01:41:49;95547.34;;;1.78;100.00
57801;BME280;43627;42.728;23.256;2022-11-15T01:47:03;95559.53;;;2.04;100.00
57801;BME280;43627;42.728;23.256;2022-11-15T01:49:33;95518.91;;;1.84;100.00
57801;BME280;43627;42.728;23.256;2022-11-15T01:52:04;95569.88;;;2.12;100.00
57801;BME280;43627;42.728;23.256;2022-11-15T01:54:33;95544.16;;;2.04;100.00
57801;BME280;43627;42.728;23.256;2022-11-15T01:57:08;95549.16;;;2.09;100.00
57801;BME280;43627;42.728;23.256;2022-11-15T01:59:38;95552.91;;;2.22;100.00
57801;BME280;43627;42.728;23.256;2022-11-15T02:02:07;95544.53;;;2.10;100.00
57801;BME280;43627;42.728;23.256;2022-11-15T02:04:43;95560.34;;;1.97;100.00
57801;BME280;43627;42.728;23.256;2022-11-15T02:07:13;95550.38;;;1.94;100.00
57801;BME280;43627;42.728;23.256;2022-11-15T02:09:41;95565.72;;;1.97;100.00
57801;BME280;43627;42.728;23.256;2022-11-15T02:12:09;95509.41;;;1.58;100.00
57801;BME280;43627;42.728;23.256;2022-11-15T02:14:42;95562.25;;;1.96;100.00
57801;BME280;43627;42.728;23.256;2022-11-15T02:20:13;95564.53;;;2.05;100.00
57801;BME280;43627;42.728;23.256;2022-11-15T02:30:54;95552.66;;;1.99;100.00
57801;BME280;43627;42.728;23.256;2022-11-15T02:36:09;95556.00;;;2.17;100.00
57801;BME280;43627;42.728;23.256;2022-11-15T02:38:57;95546.81;;;2.18;100.00
57801;BME280;43627;42.728;23.256;2022-11-15T02:41:35;95546.78;;;2.22;100.00
57801;BME280;43627;42.728;23.256;2022-11-15T02:44:13;95517.72;;;1.92;100.00
57801;BME280;43627;42.728;23.256;2022-11-15T02:46:55;95533.06;;;1.95;100.00
57801;BME280;43627;42.728;23.256;2022-11-15T02:49:50;95553.78;;;2.09;100.00
57801;BME280;43627;42.728;23.256;2022-11-15T02:52:20;95555.69;;;2.05;100.00
57801;BME280;43627;42.728;23.256;2022-11-15T02:54:55;95546.91;;;1.93;100.00
57801;BME280;43627;42.728;23.256;2022-11-15T02:57:45;95554.97;;;1.97;100.00
57801;BME280;43627;42.728;23.256;2022-11-15T03:00:19;95550.03;;;1.78;100.00
57801;BME280;43627;42.728;23.256;2022-11-15T03:09:09;95553.16;;;1.69;100.00
57801;BME280;43627;42.728;23.256;2022-11-15T03:11:41;95529.81;;;1.48;100.00
57801;BME280;43627;42.728;23.256;2022-11-15T03:14:32;95550.09;;;1.67;100.00
57801;BME280;43627;42.728;23.256;2022-11-15T03:19:45;95551.63;;;1.61;100.00
57801;BME280;43627;42.728;23.256;2022-11-15T03:22:18;95538.56;;;1.74;100.00
57801;BME280;43627;42.728;23.256;2022-11-15T03:24:52;95486.06;;;1.44;100.00
57801;BME280;43627;42.728;23.256;2022-11-15T03:27:23;95546.63;;;1.70;100.00
57801;BME280;43627;42.728;23.256;2022-11-15T03:29:57;95541.28;;;1.59;100.00
57801;BME280;43627;42.728;23.256;2022-11-15T03:32:29;95530.22;;;1.43;100.00
57801;BME280;43627;42.728;23.256;2022-11-15T03:35:05;95539.00;;;1.61;100.00
57801;BME280;43627;42.728;23.256;2022-11-15T03:40:25;95536.34;;;1.43;100.00
57801;BME280;43627;42.728;23.256;2022-11-15T03:43:12;95516.78;;;1.43;100.00
57801;BME280;43627;42.728;23.256;2022-11-15T03:45:47;95521.31;;;1.60;100.00
57801;BME280;43627;42.728;23.256;2022-11-15T03:48:21;95459.28;;;1.19;100.00
57801;BME280;43627;42.728;23.256;2022-11-15T03:50:49;95469.19;;;1.40;100.00
57801;BME280;43627;42.728;23.256;2022-11-15T03:53:16;95459.25;;;1.33;100.00
57801;BME280;43627;42.728;23.256;2022-11-15T03:55:43;95522.78;;;1.76;100.00
57801;BME280;43627;42.728;23.256;2022-11-15T03:58:10;95466.88;;;1.38;100.00
57801;BME280;43627;42.728;23.256;2022-11-15T04:00:37;95522.06;;;1.71;100.00
57801;BME280;43627;42.728;23.256;2022-11-15T04:03:04;95502.94;;;1.52;100.00
57801;BME280;43627;42.728;23.256;2022-11-15T04:05:30;95522.41;;;1.70;100.00
57801;BME280;43627;42.728;23.256;2022-11-15T04:07:57;95488.22;;;1.70;100.00
57801;BME280;43627;42.728;23.256;2022-11-15T04:10:25;95497.09;;;1.71;100.00
57801;BME280;43627;42.728;23.256;2022-11-15T04:12:52;95407.09;;;1.13;100.00
57801;BME280;43627;42.728;23.256;2022-11-15T04:15:23;95499.34;;;1.80;100.00
57801;BME280;43627;42.728;23.256;2022-11-15T04:17:52;95509.94;;;2.08;100.00
57801;BME280;43627;42.728;23.256;2022-11-15T04:20:23;95511.78;;;2.22;100.00
57801;BME280;43627;42.728;23.256;2022-11-15T04:23:14;95452.47;;;1.84;100.00
57801;BME280;43627;42.728;23.256;2022-11-15T04:26:04;95501.16;;;1.97;100.00
57801;BME280;43627;42.728;23.256;2022-11-15T04:28:31;95515.78;;;1.96;100.00
57801;BME280;43627;42.728;23.256;2022-11-15T04:30:59;95507.75;;;1.92;100.00
57801;BME280;43627;42.728;23.256;2022-11-15T04:33:25;95476.34;;;1.71;100.00
57801;BME280;43627;42.728;23.256;2022-11-15T04:35:52;95492.47;;;1.71;100.00
57801;BME280;43627;42.728;23.256;2022-11-15T04:38:37;95503.16;;;1.86;100.00
57801;BME280;43627;42.728;23.256;2022-11-15T04:41:04;95496.69;;;1.73;100.00
57801;BME280;43627;42.728;23.256;2022-11-15T04:43:31;95491.72;;;1.67;100.00
57801;BME280;43627;42.728;23.256;2022-11-15T04:45:58;95509.75;;;1.70;100.00
57801;BME280;43627;42.728;23.256;2022-11-15T04:48:25;95509.03;;;1.59;100.00
57801;BME280;43627;42.728;23.256;2022-11-15T04:50:52;95515.97;;;1.50;100.00
57801;BME280;43627;42.728;23.256;2022-11-15T04:53:18;95520.22;;;1.40;100.00
57801;BME280;43627;42.728;23.256;2022-11-15T04:55:46;95516.00;;;1.46;100.00
57801;BME280;43627;42.728;23.256;2022-11-15T04:58:13;95511.78;;;1.45;100.00
57801;BME280;43627;42.728;23.256;2022-11-15T05:00:40;95521.75;;;1.45;100.00
57801;BME280;43627;42.728;23.256;2022-11-15T05:03:09;95519.81;;;1.56;100.00
57801;BME280;43627;42.728;23.256;2022-11-15T05:05:55;95527.13;;;1.52;100.00
57801;BME280;43627;42.728;23.256;2022-11-15T05:08:22;95531.31;;;1.56;100.00
57801;BME280;43627;42.728;23.256;2022-11-15T05:10:48;95508.72;;;1.36;100.00
57801;BME280;43627;42.728;23.256;2022-11-15T05:13:15;95499.53;;;1.23;100.00
57801;BME280;43627;42.728;23.256;2022-11-15T05:15:42;95509.13;;;1.34;100.00
57801;BME280;43627;42.728;23.256;2022-11-15T05:18:09;95520.25;;;1.29;100.00
57801;BME280;43627;42.728;23.256;2022-11-15T05:20:36;95514.53;;;1.24;100.00
57801;BME280;43627;42.728;23.256;2022-11-15T05:23:02;95508.75;;;1.29;100.00
57801;BME280;43627;42.728;23.256;2022-11-15T05:25:29;95488.47;;;1.10;100.00
57801;BME280;43627;42.728;23.256;2022-11-15T05:27:56;95516.41;;;1.34;100.00
57801;BME280;43627;42.728;23.256;2022-11-15T05:30:23;95517.16;;;1.38;100.00
57801;BME280;43627;42.728;23.256;2022-11-15T05:32:50;95485.75;;;1.21;100.00
57801;BME280;43627;42.728;23.256;2022-11-15T05:35:25;95498.00;;;1.29;100.00
57801;BME280;43627;42.728;23.256;2022-11-15T05:37:56;95489.19;;;1.25;100.00
57801;BME280;43627;42.728;23.256;2022-11-15T05:40:23;95488.78;;;1.30;100.00
57801;BME280;43627;42.728;23.256;2022-11-15T05:42:50;95513.69;;;1.41;100.00
57801;BME280;43627;42.728;23.256;2022-11-15T05:45:17;95514.47;;;1.45;100.00
57801;BME280;43627;42.728;23.256;2022-11-15T05:47:52;95512.13;;;1.61;100.00
57801;BME280;43627;42.728;23.256;2022-11-15T05:50:20;95521.31;;;1.64;100.00
57801;BME280;43627;42.728;23.256;2022-11-15T05:52:47;95512.84;;;1.65;100.00
57801;BME280;43627;42.728;23.256;2022-11-15T05:55:15;95517.84;;;1.67;100.00
57801;BME280;43627;42.728;23.256;2022-11-15T05:57:42;95510.88;;;1.77;100.00
57801;BME280;43627;42.728;23.256;2022-11-15T06:00:09;95527.75;;;1.84;100.00
57801;BME280;43627;42.728;23.256;2022-11-15T06:02:36;95520.41;;;1.92;100.00
57801;BME280;43627;42.728;23.256;2022-11-15T06:05:03;95540.34;;;1.98;100.00
57801;BME280;43627;42.728;23.256;2022-11-15T06:07:29;95538.03;;;2.04;100.00
57801;BME280;43627;42.728;23.256;2022-11-15T06:09:57;95531.50;;;1.97;100.00
57801;BME280;43627;42.728;23.256;2022-11-15T06:12:24;95523.50;;;1.87;100.00
57801;BME280;43627;42.728;23.256;2022-11-15T06:14:50;95536.53;;;1.95;100.00
57801;BME280;43627;42.728;23.256;2022-11-15T06:17:17;95516.91;;;1.98;100.00
57801;BME280;43627;42.728;23.256;2022-11-15T06:19:44;95535.63;;;2.23;100.00
57801;BME280;43627;42.728;23.256;2022-11-15T06:22:11;95510.72;;;2.05;100.00
57801;BME280;43627;42.728;23.256;2022-11-15T06:24:38;95524.13;;;2.19;100.00
57801;BME280;43627;42.728;23.256;2022-11-15T06:27:04;95498.38;;;2.15;100.00
57801;BME280;43627;42.728;23.256;2022-11-15T06:29:31;95523.97;;;2.41;100.00
57801;BME280;43627;42.728;23.256;2022-11-15T06:31:58;95517.38;;;2.49;100.00
57801;BME280;43627;42.728;23.256;2022-11-15T06:34:25;95521.25;;;2.48;100.00
57801;BME280;43627;42.728;23.256;2022-11-15T06:36:52;95526.50;;;2.62;100.00
57801;BME280;43627;42.728;23.256;2022-11-15T06:39:19;95522.66;;;2.63;100.00
57801;BME280;43627;42.728;23.256;2022-11-15T06:41:46;95532.97;;;2.72;100.00
57801;BME280;43627;42.728;23.256;2022-11-15T06:44:13;95534.25;;;2.56;100.00
57801;BME280;43627;42.728;23.256;2022-11-15T06:46:40;95510.84;;;2.50;100.00
57801;BME280;43627;42.728;23.256;2022-11-15T06:49:06;95499.69;;;2.51;100.00
57801;BME280;43627;42.728;23.256;2022-11-15T06:51:35;95520.59;;;2.81;100.00
57801;BME280;43627;42.728;23.256;2022-11-15T06:54:02;95495.31;;;2.65;100.00
57801;BME280;43627;42.728;23.256;2022-11-15T06:56:29;95524.44;;;2.80;100.00
57801;BME280;43627;42.728;23.256;2022-11-15T06:58:55;95495.28;;;2.72;100.00
57801;BME280;43627;42.728;23.256;2022-11-15T07:01:22;95529.28;;;3.00;100.00
57801;BME280;43627;42.728;23.256;2022-11-15T07:03:49;95520.44;;;2.99;100.00
57801;BME280;43627;42.728;23.256;2022-11-15T07:06:16;95521.50;;;3.09;100.00
57801;BME280;43627;42.728;23.256;2022-11-15T07:08:43;95512.59;;;3.12;100.00
57801;BME280;43627;42.728;23.256;2022-11-15T07:11:09;95498.06;;;3.06;100.00
57801;BME280;43627;42.728;23.256;2022-11-15T07:13:36;95513.13;;;3.37;100.00
57801;BME280;43627;42.728;23.256;2022-11-15T07:16:05;95517.72;;;3.40;100.00
57801;BME280;43627;42.728;23.256;2022-11-15T07:18:37;95518.28;;;3.59;100.00
57801;BME280;43627;42.728;23.256;2022-11-15T07:21:07;95515.16;;;3.64;100.00
57801;BME280;43627;42.728;23.256;2022-11-15T07:23:36;95522.06;;;3.65;100.00
57801;BME280;43627;42.728;23.256;2022-11-15T07:26:04;95505.09;;;3.68;100.00
57801;BME280;43627;42.728;23.256;2022-11-15T07:28:31;95520.34;;;3.82;100.00
57801;BME280;43627;42.728;23.256;2022-11-15T07:31:01;95514.75;;;3.65;100.00
57801;BME280;43627;42.728;23.256;2022-11-15T07:33:28;95522.28;;;3.81;100.00
57801;BME280;43627;42.728;23.256;2022-11-15T07:35:58;95521.59;;;3.73;100.00
57801;BME280;43627;42.728;23.256;2022-11-15T07:38:28;95518.75;;;3.84;100.00
57801;BME280;43627;42.728;23.256;2022-11-15T07:41:01;95526.03;;;3.87;100.00
57801;BME280;43627;42.728;23.256;2022-11-15T07:43:28;95509.84;;;3.87;100.00
57801;BME280;43627;42.728;23.256;2022-11-15T07:45:56;95516.97;;;4.05;100.00
57801;BME280;43627;42.728;23.256;2022-11-15T07:48:25;95508.56;;;3.99;100.00
57801;BME280;43627;42.728;23.256;2022-11-15T07:51:11;95518.41;;;4.13;100.00
57801;BME280;43627;42.728;23.256;2022-11-15T07:53:40;95492.47;;;3.92;100.00
57801;BME280;43627;42.728;23.256;2022-11-15T07:56:07;95515.78;;;3.75;100.00
57801;BME280;43627;42.728;23.256;2022-11-15T07:58:34;95482.75;;;3.67;100.00
57801;BME280;43627;42.728;23.256;2022-11-15T08:01:05;95483.88;;;3.70;100.00
57801;BME280;43627;42.728;23.256;2022-11-15T08:03:33;95521.78;;;3.90;100.00
57801;BME280;43627;42.728;23.256;2022-11-15T08:06:00;95497.19;;;3.84;100.00
57801;BME280;43627;42.728;23.256;2022-11-15T08:08:27;95499.03;;;3.91;100.00
57801;BME280;43627;42.728;23.256;2022-11-15T08:10:54;95495.16;;;3.92;100.00
57801;BME280;43627;42.728;23.256;2022-11-15T08:13:21;95473.47;;;3.68;100.00
57801;BME280;43627;42.728;23.256;2022-11-15T08:15:48;95489.34;;;3.93;100.00
57801;BME280;43627;42.728;23.256;2022-11-15T08:18:21;95505.38;;;4.08;100.00
57801;BME280;43627;42.728;23.256;2022-11-15T08:20:48;95490.75;;;4.05;100.00
57801;BME280;43627;42.728;23.256;2022-11-15T08:23:15;95463.97;;;4.18;100.00
57801;BME280;43627;42.728;23.256;2022-11-15T08:25:41;95482.44;;;4.46;100.00
57801;BME280;43627;42.728;23.256;2022-11-15T08:28:10;95488.19;;;4.48;100.00
57801;BME280;43627;42.728;23.256;2022-11-15T08:30:38;95503.06;;;4.60;100.00
57801;BME280;43627;42.728;23.256;2022-11-15T08:33:13;95499.53;;;4.63;100.00
57801;BME280;43627;42.728;23.256;2022-11-15T08:35:41;95482.94;;;4.65;100.00
57801;BME280;43627;42.728;23.256;2022-11-15T08:38:08;95496.19;;;4.55;100.00
57801;BME280;43627;42.728;23.256;2022-11-15T08:40:36;95484.41;;;4.19;100.00
57801;BME280;43627;42.728;23.256;2022-11-15T08:43:03;95460.00;;;3.99;100.00
57801;BME280;43627;42.728;23.256;2022-11-15T08:45:30;95477.16;;;4.12;100.00
57801;BME280;43627;42.728;23.256;2022-11-15T08:47:57;95494.81;;;4.44;100.00
57801;BME280;43627;42.728;23.256;2022-11-15T08:50:26;95478.19;;;4.45;100.00
57801;BME280;43627;42.728;23.256;2022-11-15T08:52:53;95466.72;;;4.65;100.00
57801;BME280;43627;42.728;23.256;2022-11-15T08:55:20;95458.34;;;4.32;100.00
57801;BME280;43627;42.728;23.256;2022-11-15T08:57:50;95472.19;;;4.34;100.00
57801;BME280;43627;42.728;23.256;2022-11-15T09:00:17;95475.56;;;4.42;100.00
57801;BME280;43627;42.728;23.256;2022-11-15T09:02:46;95461.63;;;4.47;100.00
57801;BME280;43627;42.728;23.256;2022-11-15T09:05:13;95460.97;;;4.63;100.00
57801;BME280;43627;42.728;23.256;2022-11-15T09:07:39;95466.72;;;4.65;100.00
57801;BME280;43627;42.728;23.256;2022-11-15T09:10:06;95461.78;;;4.59;100.00
57801;BME280;43627;42.728;23.256;2022-11-15T09:12:33;95454.78;;;4.62;100.00
57801;BME280;43627;42.728;23.256;2022-11-15T09:15:00;95450.03;;;4.70;100.00
57801;BME280;43627;42.728;23.256;2022-11-15T09:17:27;95440.41;;;4.69;100.00
57801;BME280;43627;42.728;23.256;2022-11-15T09:19:53;95451.63;;;4.67;100.00
57801;BME280;43627;42.728;23.256;2022-11-15T09:22:20;95440.94;;;4.60;100.00
57801;BME280;43627;42.728;23.256;2022-11-15T09:24:47;95415.94;;;4.56;100.00
57801;BME280;43627;42.728;23.256;2022-11-15T09:27:14;95406.38;;;4.51;100.00
57801;BME280;43627;42.728;23.256;2022-11-15T09:29:58;95421.69;;;4.58;100.00
57801;BME280;43627;42.728;23.256;2022-11-15T09:32:28;95427.78;;;4.62;100.00
57801;BME280;43627;42.728;23.256;2022-11-15T09:35:04;95404.00;;;4.53;100.00
57801;BME280;43627;42.728;23.256;2022-11-15T09:37:31;95424.03;;;4.79;100.00
57801;BME280;43627;42.728;23.256;2022-11-15T09:39:58;95422.84;;;4.80;100.00
57801;BME280;43627;42.728;23.256;2022-11-15T09:45:17;95406.28;;;4.78;100.00
57801;BME280;43627;42.728;23.256;2022-11-15T09:48:25;95411.13;;;4.67;100.00
57801;BME280;43627;42.728;23.256;2022-11-15T09:50:58;95370.19;;;4.45;100.00
57801;BME280;43627;42.728;23.256;2022-11-15T09:56:20;95400.06;;;5.01;100.00
57801;BME280;43627;42.728;23.256;2022-11-15T10:04:32;95347.69;;;4.95;100.00
57801;BME280;43627;42.728;23.256;2022-11-15T10:07:10;95378.25;;;5.32;100.00
57801;BME280;43627;42.728;23.256;2022-11-15T10:12:15;95361.88;;;5.39;100.00
57801;BME280;43627;42.728;23.256;2022-11-15T10:14:42;95349.69;;;5.51;100.00
57801;BME280;43627;42.728;23.256;2022-11-15T10:20:12;95366.16;;;5.92;100.00
57801;BME280;43627;42.728;23.256;2022-11-15T10:22:51;95366.19;;;6.09;100.00
57801;BME280;43627;42.728;23.256;2022-11-15T10:25:27;95293.44;;;5.42;100.00
57801;BME280;43627;42.728;23.256;2022-11-15T10:28:01;95363.72;;;5.98;100.00
57801;BME280;43627;42.728;23.256;2022-11-15T10:30:40;95349.50;;;6.10;100.00
57801;BME280;43627;42.728;23.256;2022-11-15T10:33:18;95333.56;;;5.80;100.00
57801;BME280;43627;42.728;23.256;2022-11-15T10:35:47;95332.94;;;5.92;100.00
57801;BME280;43627;42.728;23.256;2022-11-15T10:38:14;95334.69;;;6.15;100.00
57801;BME280;43627;42.728;23.256;2022-11-15T10:40:41;95310.75;;;6.13;100.00
57801;BME280;43627;42.728;23.256;2022-11-15T10:45:37;95313.03;;;6.15;100.00
57801;BME280;43627;42.728;23.256;2022-11-15T10:50:42;95317.09;;;6.68;100.00
57801;BME280;43627;42.728;23.256;2022-11-15T10:53:29;95303.53;;;6.97;100.00
57801;BME280;43627;42.728;23.256;2022-11-15T10:56:02;95284.72;;;6.77;100.00
57801;BME280;43627;42.728;23.256;2022-11-15T10:58:44;95297.88;;;7.21;100.00
57801;BME280;43627;42.728;23.256;2022-11-15T11:01:22;95298.75;;;7.30;100.00
57801;BME280;43627;42.728;23.256;2022-11-15T11:04:07;95285.81;;;7.34;100.00
57801;BME280;43627;42.728;23.256;2022-11-15T11:06:55;95300.38;;;7.40;100.00
57801;BME280;43627;42.728;23.256;2022-11-15T11:09:34;95291.94;;;7.51;100.00
57801;BME280;43627;42.728;23.256;2022-11-15T11:12:03;95259.78;;;7.24;100.00
57801;BME280;43627;42.728;23.256;2022-11-15T11:14:33;95270.88;;;7.30;100.00
57801;BME280;43627;42.728;23.256;2022-11-15T11:17:15;95276.28;;;7.30;100.00
57801;BME280;43627;42.728;23.256;2022-11-15T11:19:56;95272.16;;;7.51;100.00
57801;BME280;43627;42.728;23.256;2022-11-15T11:22:50;95261.63;;;7.53;100.00
57801;BME280;43627;42.728;23.256;2022-11-15T11:25:28;95261.19;;;7.29;100.00
57801;BME280;43627;42.728;23.256;2022-11-15T11:30:52;95248.50;;;7.38;100.00
57801;BME280;43627;42.728;23.256;2022-11-15T11:33:38;95247.72;;;7.38;100.00
57801;BME280;43627;42.728;23.256;2022-11-15T11:39:11;95221.16;;;7.45;100.00
57801;BME280;43627;42.728;23.256;2022-11-15T11:47:18;95206.34;;;7.85;100.00
57801;BME280;43627;42.728;23.256;2022-11-15T11:49:59;95209.53;;;7.70;100.00
57801;BME280;43627;42.728;23.256;2022-11-15T11:52:31;95200.72;;;7.79;100.00
57801;BME280;43627;42.728;23.256;2022-11-15T11:55:02;95196.91;;;7.77;100.00
57801;BME280;43627;42.728;23.256;2022-11-15T11:57:46;95197.25;;;7.66;100.00
57801;BME280;43627;42.728;23.256;2022-11-15T12:00:19;95183.75;;;7.88;100.00
57801;BME280;43627;42.728;23.256;2022-11-15T12:05:30;95165.34;;;7.70;100.00
57801;BME280;43627;42.728;23.256;2022-11-15T12:08:17;95179.19;;;8.19;100.00
57801;BME280;43627;42.728;23.256;2022-11-15T12:13:35;95162.38;;;8.12;100.00
57801;BME280;43627;42.728;23.256;2022-11-15T12:16:14;95164.44;;;8.42;100.00
57801;BME280;43627;42.728;23.256;2022-11-15T12:18:51;95142.16;;;8.47;100.00
57801;BME280;43627;42.728;23.256;2022-11-15T12:21:36;95160.13;;;8.76;100.00
57801;BME280;43627;42.728;23.256;2022-11-15T12:24:12;95135.75;;;8.41;100.00
57801;BME280;43627;42.728;23.256;2022-11-15T12:26:48;95134.66;;;8.17;100.00
57801;BME280;43627;42.728;23.256;2022-11-15T12:29:26;95151.81;;;8.48;100.00
57801;BME280;43627;42.728;23.256;2022-11-15T12:31:55;95138.91;;;8.40;100.00
57801;BME280;43627;42.728;23.256;2022-11-15T12:36:55;95142.59;;;8.33;100.00
57801;BME280;43627;42.728;23.256;2022-11-15T12:40:12;95134.81;;;8.35;100.00
57801;BME280;43627;42.728;23.256;2022-11-15T12:44:57;95126.34;;;8.55;100.00
57801;BME280;43627;42.728;23.256;2022-11-15T12:47:26;95113.63;;;8.30;100.00
57801;BME280;43627;42.728;23.256;2022-11-15T12:49:53;95131.22;;;8.38;100.00
57801;BME280;43627;42.728;23.256;2022-11-15T12:52:20;95081.59;;;8.25;100.00
57801;BME280;43627;42.728;23.256;2022-11-15T12:54:55;95112.28;;;8.13;100.00
57801;BME280;43627;42.728;23.256;2022-11-15T12:57:31;95124.72;;;8.36;100.00
57801;BME280;43627;42.728;23.256;2022-11-15T13:00:01;95074.34;;;8.00;100.00
57801;BME280;43627;42.728;23.256;2022-11-15T13:02:42;95109.94;;;8.02;100.00
57801;BME280;43627;42.728;23.256;2022-11-15T13:13:03;95104.22;;;8.22;100.00
57801;BME280;43627;42.728;23.256;2022-11-15T13:15:54;95072.88;;;8.30;100.00
57801;BME280;43627;42.728;23.256;2022-11-15T13:18:39;95095.09;;;8.59;100.00
57801;BME280;43627;42.728;23.256;2022-11-15T13:21:21;95096.34;;;8.68;100.00
57801;BME280;43627;42.728;23.256;2022-11-15T13:24:13;95087.22;;;8.83;100.00
57801;BME280;43627;42.728;23.256;2022-11-15T13:26:42;95086.13;;;8.72;100.00
57801;BME280;43627;42.728;23.256;2022-11-15T13:29:15;95075.81;;;8.67;100.00
57801;BME280;43627;42.728;23.256;2022-11-15T13:31:43;95061.72;;;8.59;100.00
57801;BME280;43627;42.728;23.256;2022-11-15T13:34:23;95042.81;;;8.46;100.00
57801;BME280;43627;42.728;23.256;2022-11-15T13:39:48;95084.94;;;8.82;100.00
57801;BME280;43627;42.728;23.256;2022-11-15T13:42:18;95087.94;;;8.75;100.00
57801;BME280;43627;42.728;23.256;2022-11-15T13:45:03;95067.63;;;8.57;100.00
57801;BME280;43627;42.728;23.256;2022-11-15T13:47:31;95071.53;;;8.56;100.00
57801;BME280;43627;42.728;23.256;2022-11-15T13:49:59;95078.47;;;8.57;100.00
57801;BME280;43627;42.728;23.256;2022-11-15T13:52:39;95079.00;;;8.43;100.00
57801;BME280;43627;42.728;23.256;2022-11-15T13:55:19;95078.84;;;8.38;100.00
57801;BME280;43627;42.728;23.256;2022-11-15T13:57:59;95058.94;;;7.97;100.00
57801;BME280;43627;42.728;23.256;2022-11-15T14:00:44;95068.84;;;8.13;100.00
57801;BME280;43627;42.728;23.256;2022-11-15T14:03:28;95061.66;;;7.97;100.00
57801;BME280;43627;42.728;23.256;2022-11-15T14:06:11;95056.97;;;7.76;100.00
57801;BME280;43627;42.728;23.256;2022-11-15T14:11:52;95039.00;;;7.34;100.00
57801;BME280;43627;42.728;23.256;2022-11-15T14:14:21;95040.41;;;7.26;100.00
57801;BME280;43627;42.728;23.256;2022-11-15T14:16:51;95060.66;;;7.47;100.00
57801;BME280;43627;42.728;23.256;2022-11-15T14:24:42;95052.59;;;7.22;100.00
57801;BME280;43627;42.728;23.256;2022-11-15T14:29:43;95068.00;;;7.12;100.00
57801;BME280;43627;42.728;23.256;2022-11-15T14:32:21;95068.91;;;6.96;100.00
57801;BME280;43627;42.728;23.256;2022-11-15T14:34:54;95071.41;;;6.78;100.00
57801;BME280;43627;42.728;23.256;2022-11-15T14:37:22;95074.75;;;6.69;100.00
57801;BME280;43627;42.728;23.256;2022-11-15T14:39:49;95058.19;;;6.54;100.00
57801;BME280;43627;42.728;23.256;2022-11-15T14:42:17;95043.66;;;6.48;100.00
57801;BME280;43627;42.728;23.256;2022-11-15T14:44:44;95068.66;;;6.52;100.00